Time;durP1;ratioP1;P1;durP2;ratioP2;P2;SDS_P1;SDS_P2;PMS_P1;PMS_P2;Temp;Humidity;BMP_temperature;BMP_pressure;BME280_temperature;BME280_humidity;BME280_pressure;Samples;Min_cycle;Max_cycle;Signal;HPM_P1;HPM_P2
2021/04/29 00:00:37;;;;;;;10.80;8.80;;;;;;;10.64;46.37;99969.31;5284260;28;20048;-66
2021/04/29 00:03:09;;;;;;;16.08;9.02;;;;;;;10.73;47.06;99981.53;5286156;28;20044;-66
2021/04/29 00:05:41;;;;;;;14.07;8.88;;;;;;;10.60;46.92;99981.88;5289423;28;20028;-66
2021/04/29 00:08:12;;;;;;;11.35;8.20;;;;;;;10.64;46.62;99983.22;5289198;28;20029;-66
2021/04/29 00:10:43;;;;;;;15.25;9.18;;;;;;;10.59;46.51;99976.81;5285958;28;20039;-66
2021/04/29 00:13:15;;;;;;;11.57;8.50;;;;;;;10.56;46.80;99982.34;5287140;28;20507;-66
2021/04/29 00:15:47;;;;;;;12.55;8.02;;;;;;;10.47;46.83;99977.03;5289474;28;20093;-66
2021/04/29 00:18:19;;;;;;;12.05;8.70;;;;;;;10.43;47.62;99977.50;5287849;28;20032;-66
2021/04/29 00:20:57;;;;;;;14.65;8.98;;;;;;;10.40;47.52;99983.03;5286798;28;20020;-66
2021/04/29 00:23:29;;;;;;;14.45;8.82;;;;;;;10.25;48.25;99980.13;5286645;28;20032;-66
2021/04/29 00:26:00;;;;;;;13.43;8.63;;;;;;;10.16;48.80;99986.22;5288513;28;20473;-66
2021/04/29 00:28:31;;;;;;;10.63;8.45;;;;;;;10.10;48.40;99977.16;5286233;28;20040;-66
2021/04/29 00:31:03;;;;;;;11.00;8.65;;;;;;;9.97;49.42;99974.91;5286893;28;20052;-66
2021/04/29 00:33:34;;;;;;;11.27;8.88;;;;;;;9.93;49.23;99970.13;5269813;28;20419;-66
2021/04/29 00:36:06;;;;;;;13.30;9.25;;;;;;;9.83;49.62;99967.56;5289447;28;20384;-66
2021/04/29 00:38:37;;;;;;;12.93;9.25;;;;;;;9.84;49.62;99968.38;5285479;28;20037;-66
2021/04/29 00:41:09;;;;;;;10.77;8.38;;;;;;;9.69;49.99;99978.50;5287037;28;20035;-68
2021/04/29 00:43:40;;;;;;;12.38;9.07;;;;;;;9.64;50.00;99992.00;5286202;28;20020;-66
2021/04/29 00:46:14;;;;;;;10.65;9.05;;;;;;;9.60;49.95;100001.13;5288096;28;20032;-66
2021/04/29 00:48:45;;;;;;;13.60;9.30;;;;;;;9.52;49.99;100013.28;5289252;28;20025;-66
2021/04/29 00:51:18;;;;;;;13.43;9.07;;;;;;;9.53;50.28;100022.75;5284053;28;20082;-66
2021/04/29 00:53:50;;;;;;;12.95;8.95;;;;;;;9.48;50.58;100024.00;5269526;28;20086;-66
2021/04/29 00:56:23;;;;;;;15.05;9.07;;;;;;;9.42;50.54;100027.19;5287718;28;20108;-66
2021/04/29 00:58:54;;;;;;;14.45;9.20;;;;;;;9.38;50.80;100025.00;5283193;28;20424;-66
2021/04/29 01:01:26;;;;;;;12.32;9.02;;;;;;;9.38;50.74;100028.44;5276807;28;20035;-66
2021/04/29 01:04:05;;;;;;;12.15;8.95;;;;;;;9.34;51.25;100029.69;5277119;28;20115;-67
2021/04/29 01:06:42;;;;;;;12.00;8.88;;;;;;;9.23;51.19;100017.63;5276517;28;20024;-67
2021/04/29 01:09:20;;;;;;;11.57;9.52;;;;;;;9.26;51.50;100033.03;5277167;28;20480;-67
2021/04/29 01:11:59;;;;;;;11.57;9.05;;;;;;;9.18;51.58;100029.47;5277668;28;20024;-66
2021/04/29 01:14:31;;;;;;;15.57;9.50;;;;;;;9.10;52.15;100029.34;5275968;28;20024;-67
2021/04/29 01:17:03;;;;;;;13.10;10.07;;;;;;;9.08;52.35;100034.69;5277427;28;20612;-67
2021/04/29 01:19:44;;;;;;;13.85;10.60;;;;;;;9.15;51.45;100029.75;5267394;28;20029;-67
2021/04/29 01:22:15;;;;;;;12.18;9.98;;;;;;;9.14;51.72;100028.94;5276039;28;20111;-67
2021/04/29 01:24:55;;;;;;;14.32;9.82;;;;;;;9.11;51.44;100037.03;5276779;28;20583;-66
2021/04/29 01:27:27;;;;;;;14.55;9.65;;;;;;;9.10;51.85;100034.59;5274834;28;20056;-67
2021/04/29 01:30:07;;;;;;;15.85;9.70;;;;;;;9.14;51.95;100035.94;5276765;28;20112;-67
2021/04/29 01:32:41;;;;;;;13.23;9.18;;;;;;;9.11;51.95;100034.44;5277012;28;20492;-67
2021/04/29 01:35:13;;;;;;;14.20;10.15;;;;;;;9.15;52.09;100027.13;5274930;28;20036;-67
2021/04/29 01:37:45;;;;;;;14.35;10.05;;;;;;;9.11;52.40;100028.38;5273217;28;20074;-67
2021/04/29 01:40:17;;;;;;;12.83;9.30;;;;;;;9.11;53.15;100031.00;5264011;28;20119;-67
2021/04/29 01:42:49;;;;;;;12.57;9.05;;;;;;;9.10;52.55;100042.41;5262669;28;20096;-67
2021/04/29 01:45:20;;;;;;;15.95;10.32;;;;;;;9.12;52.65;100045.69;5275181;28;20410;-67
2021/04/29 01:47:52;;;;;;;15.23;9.23;;;;;;;9.09;52.20;100044.22;5275426;28;20035;-67
2021/04/29 01:50:23;;;;;;;12.82;9.02;;;;;;;9.13;52.45;100042.13;5273985;28;20024;-67
2021/04/29 01:52:56;;;;;;;11.57;9.73;;;;;;;9.10;52.56;100055.47;5276121;28;20077;-66
2021/04/29 01:55:28;;;;;;;11.35;9.93;;;;;;;9.11;52.58;100057.13;5276252;28;20028;-67
2021/04/29 01:58:00;;;;;;;12.43;9.25;;;;;;;9.10;53.10;100056.31;5275397;28;20031;-66
2021/04/29 02:00:31;;;;;;;17.40;10.20;;;;;;;9.09;53.18;100059.88;5278608;28;20048;-67
2021/04/29 02:03:02;;;;;;;10.93;9.07;;;;;;;9.13;53.49;100068.25;5279929;28;20078;-67
2021/04/29 02:05:34;;;;;;;13.98;9.63;;;;;;;9.09;53.73;100057.28;5279098;28;20032;-67
2021/04/29 02:08:05;;;;;;;12.57;9.13;;;;;;;9.11;53.86;100063.19;5283893;28;20043;-66
2021/04/29 02:10:36;;;;;;;13.73;9.30;;;;;;;9.09;53.83;100061.66;5282172;28;20020;-67
2021/04/29 02:13:12;;;;;;;13.77;9.98;;;;;;;9.06;54.31;100060.16;5281390;28;20489;-67
2021/04/29 02:15:58;;;;;;;14.25;9.40;;;;;;;9.04;54.40;100053.41;5281219;28;20602;-66
2021/04/29 02:18:30;;;;;;;12.40;10.00;;;;;;;9.02;54.70;100054.41;5280374;28;20029;-66
2021/04/29 02:21:03;;;;;;;13.37;9.00;;;;;;;9.00;54.65;100058.09;5282348;28;20032;-66
2021/04/29 02:23:34;;;;;;;12.98;9.05;;;;;;;8.97;54.60;100048.75;5280997;28;20431;-66
2021/04/29 02:26:06;;;;;;;14.70;9.00;;;;;;;8.99;54.60;100044.22;5278728;28;20033;-66
2021/04/29 02:28:38;;;;;;;13.65;9.73;;;;;;;8.96;55.07;100038.44;5273302;28;20415;-65
2021/04/29 02:31:10;;;;;;;13.13;9.30;;;;;;;8.94;55.22;100043.81;5280176;28;20024;-66
2021/04/29 02:33:41;;;;;;;15.90;9.82;;;;;;;8.86;55.70;100040.22;5258847;28;20162;-65
2021/04/29 02:36:12;;;;;;;13.88;8.95;;;;;;;8.80;55.75;100031.19;5283355;28;20090;-65
2021/04/29 02:38:44;;;;;;;12.98;10.15;;;;;;;8.84;56.16;100034.34;5279304;28;20103;-66
2021/04/29 02:41:16;;;;;;;13.65;9.88;;;;;;;8.77;56.39;100024.44;5282327;28;20089;-65
2021/04/29 02:43:48;;;;;;;13.38;9.38;;;;;;;8.74;56.07;100021.28;5281958;28;20119;-65
2021/04/29 02:46:20;;;;;;;13.38;9.65;;;;;;;8.73;56.11;99996.94;5280894;28;20852;-65
2021/04/29 02:48:51;;;;;;;14.32;9.30;;;;;;;8.74;56.26;99984.72;5279895;28;20108;-65
2021/04/29 02:51:23;;;;;;;13.18;9.55;;;;;;;8.67;56.84;99973.16;5280129;28;20031;-65
2021/04/29 02:53:54;;;;;;;13.88;9.60;;;;;;;8.66;57.04;99977.56;5282816;28;20082;-66
2021/04/29 02:56:26;;;;;;;13.35;10.15;;;;;;;8.70;57.31;99976.34;5281055;28;20503;-66
2021/04/29 02:58:59;;;;;;;14.70;9.50;;;;;;;8.70;57.87;99980.72;5272098;28;20398;-65
2021/04/29 03:01:33;;;;;;;15.88;10.20;;;;;;;8.67;57.95;99987.03;5277325;28;20497;-65
2021/04/29 03:04:04;;;;;;;14.63;10.32;;;;;;;8.61;58.15;99990.22;5280583;28;20126;-65
2021/04/29 03:06:36;;;;;;;12.32;10.77;;;;;;;8.60;58.16;100006.88;5283190;28;20035;-66
2021/04/29 03:09:07;;;;;;;13.35;10.20;;;;;;;8.66;58.42;100013.31;5281332;28;20127;-66
2021/04/29 03:11:39;;;;;;;12.75;9.95;;;;;;;8.66;58.08;100010.69;5280275;28;20063;-66
2021/04/29 03:14:10;;;;;;;13.68;10.32;;;;;;;8.63;58.84;100014.41;5278681;28;20139;-66
2021/04/29 03:16:41;;;;;;;13.18;11.15;;;;;;;8.61;58.52;100005.91;5282224;28;20024;-65
2021/04/29 03:19:12;;;;;;;14.95;10.13;;;;;;;8.68;59.08;100016.63;5281261;28;20496;-65
2021/04/29 03:21:44;;;;;;;12.93;10.32;;;;;;;8.73;58.84;100011.78;5278726;28;20376;-65
2021/04/29 03:24:15;;;;;;;13.02;10.68;;;;;;;8.68;58.89;100007.00;5281299;28;20047;-66
2021/04/29 03:26:47;;;;;;;14.43;10.60;;;;;;;8.71;59.30;100017.16;5281776;28;20029;-65
2021/04/29 03:29:18;;;;;;;14.77;11.30;;;;;;;8.72;59.60;100013.59;5278681;28;20020;-65
2021/04/29 03:31:49;;;;;;;14.18;11.07;;;;;;;8.68;60.08;100016.63;5282427;28;20556;-65
2021/04/29 03:34:20;;;;;;;14.88;10.98;;;;;;;8.63;60.15;100011.78;5278459;28;20403;-65
2021/04/29 03:36:52;;;;;;;14.85;10.82;;;;;;;8.61;60.83;100018.13;5285638;28;20485;-66
2021/04/29 03:39:24;;;;;;;15.30;11.38;;;;;;;8.70;60.74;100019.91;5283978;28;20024;-66
2021/04/29 03:41:56;;;;;;;14.93;10.73;;;;;;;8.70;60.58;100020.72;5283232;28;20048;-66
2021/04/29 03:44:27;;;;;;;14.23;10.60;;;;;;;8.66;60.83;100028.97;5285251;28;20055;-65
2021/04/29 03:46:59;;;;;;;15.52;11.55;;;;;;;8.62;61.14;100031.03;5265816;28;20028;-65
2021/04/29 03:49:30;;;;;;;16.15;10.65;;;;;;;8.61;61.31;100021.56;5286353;28;20024;-66
2021/04/29 03:52:02;;;;;;;13.75;11.43;;;;;;;8.55;62.39;100031.72;5285533;28;20028;-66
2021/04/29 03:54:33;;;;;;;16.67;11.90;;;;;;;8.62;62.21;100032.81;5284908;28;20481;-66
2021/04/29 03:57:05;;;;;;;14.80;10.80;;;;;;;8.54;62.70;100023.06;5284384;28;20039;-66
2021/04/29 03:59:36;;;;;;;13.25;10.50;;;;;;;8.54;63.07;100025.69;5282157;28;20040;-65
2021/04/29 04:02:08;;;;;;;14.63;11.65;;;;;;;8.62;62.45;100025.00;5272773;28;20118;-66
2021/04/29 04:04:39;;;;;;;15.63;11.45;;;;;;;8.55;63.28;100024.72;5263479;28;20039;-66
2021/04/29 04:07:10;;;;;;;15.52;11.50;;;;;;;8.49;64.10;100027.88;5278199;28;20105;-66
2021/04/29 04:09:41;;;;;;;15.18;12.25;;;;;;;8.53;64.93;100029.25;5266729;28;20128;-66
2021/04/29 04:12:13;;;;;;;13.82;12.05;;;;;;;8.55;65.28;100026.50;5277179;28;20062;-66
2021/04/29 04:14:44;;;;;;;15.80;11.80;;;;;;;8.44;66.06;100023.06;5265943;28;20024;-67
2021/04/29 04:17:15;;;;;;;15.38;12.00;;;;;;;8.44;66.54;100028.28;5278302;28;20027;-67
2021/04/29 04:19:46;;;;;;;18.33;12.52;;;;;;;8.42;66.77;100032.00;5277504;28;20044;-67
2021/04/29 04:22:18;;;;;;;15.95;12.98;;;;;;;8.38;67.25;100031.44;5277757;28;20029;-67
2021/04/29 04:24:49;;;;;;;13.90;11.93;;;;;;;8.47;66.97;100040.22;5274743;28;20335;-66
2021/04/29 04:27:20;;;;;;;19.02;12.60;;;;;;;8.39;68.17;100042.72;5275917;28;20472;-66
2021/04/29 04:29:51;;;;;;;17.65;13.88;;;;;;;8.31;68.40;100045.97;5277992;28;20016;-66
2021/04/29 04:32:23;;;;;;;18.83;12.90;;;;;;;8.34;68.81;100050.09;5277125;28;20020;-65
2021/04/29 04:34:54;;;;;;;19.35;14.10;;;;;;;8.32;69.20;100055.44;5276893;28;20024;-66
2021/04/29 04:37:25;;;;;;;14.88;12.82;;;;;;;8.37;68.90;100061.13;5278042;28;20058;-66
2021/04/29 04:39:56;;;;;;;21.58;14.20;;;;;;;8.30;69.54;100065.19;5276894;28;20032;-66
2021/04/29 04:42:28;;;;;;;19.20;14.25;;;;;;;8.27;69.55;100061.06;5277604;28;20119;-65
2021/04/29 04:45:00;;;;;;;17.27;14.23;;;;;;;8.29;69.70;100074.78;5278133;28;20269;-65
2021/04/29 04:47:31;;;;;;;15.48;12.98;;;;;;;8.35;69.71;100070.81;5277031;28;20032;-65
2021/04/29 04:50:04;;;;;;;17.98;14.68;;;;;;;8.29;70.61;100081.78;5276595;28;20035;-65
2021/04/29 04:52:36;;;;;;;17.52;14.65;;;;;;;8.27;70.55;100083.72;5277285;28;20474;-65
2021/04/29 04:55:08;;;;;;;21.50;15.30;;;;;;;8.26;71.19;100076.88;5266977;28;20020;-65
2021/04/29 04:57:39;;;;;;;20.02;14.70;;;;;;;8.32;70.99;100091.16;5277310;28;20070;-65
2021/04/29 05:00:11;;;;;;;20.40;14.48;;;;;;;8.27;71.04;100089.75;5299986;22;20105;-67
2021/04/29 05:02:42;;;;;;;20.67;15.43;;;;;;;8.27;71.44;100088.94;5275845;28;20772;-67
2021/04/29 05:05:14;;;;;;;22.52;15.20;;;;;;;8.34;71.28;100091.84;5284265;28;20024;-67
2021/04/29 05:07:45;;;;;;;19.17;16.25;;;;;;;8.36;70.94;100098.56;5282691;28;20060;-67
2021/04/29 05:10:16;;;;;;;23.67;15.95;;;;;;;8.36;71.24;100098.56;5264318;28;20020;-68
2021/04/29 05:12:48;;;;;;;19.42;15.10;;;;;;;8.41;71.11;100104.25;5282643;28;20016;-68
2021/04/29 05:15:20;;;;;;;19.63;15.77;;;;;;;8.42;70.54;100100.69;5287524;28;20524;-68
2021/04/29 05:17:51;;;;;;;20.58;16.23;;;;;;;8.40;71.01;100099.97;5284730;28;20110;-68
2021/04/29 05:20:23;;;;;;;19.80;15.43;;;;;;;8.41;71.35;100104.25;5283243;28;20595;-68
2021/04/29 05:22:54;;;;;;;20.70;16.45;;;;;;;8.42;71.68;100103.28;5283282;28;20118;-67
2021/04/29 05:25:25;;;;;;;19.70;15.43;;;;;;;8.45;71.11;100107.44;5284071;28;20032;-67
2021/04/29 05:28:02;;;;;;;18.08;14.45;;;;;;;8.57;69.97;100108.13;5286808;28;20032;-67
2021/04/29 05:30:33;;;;;;;21.42;16.35;;;;;;;8.48;71.49;100105.34;5287122;28;20088;-67
2021/04/29 05:33:04;;;;;;;22.30;17.17;;;;;;;8.50;70.82;100113.06;5284777;28;20031;-67
2021/04/29 05:35:36;;;;;;;18.60;15.43;;;;;;;8.45;71.25;100118.69;5281317;28;20067;-67
2021/04/29 05:38:07;;;;;;;20.45;16.55;;;;;;;8.47;71.43;100115.94;5264753;28;20023;-67
2021/04/29 05:40:39;;;;;;;21.08;16.15;;;;;;;8.50;71.40;100118.28;5285483;28;20034;-67
2021/04/29 05:43:11;;;;;;;21.10;17.13;;;;;;;8.56;70.84;100122.97;5283467;28;20541;-67
2021/04/29 05:45:42;;;;;;;25.42;18.00;;;;;;;8.60;70.79;100124.34;5285285;28;20101;-68
2021/04/29 05:48:13;;;;;;;24.38;15.73;;;;;;;8.64;70.57;100117.91;5284890;28;20031;-68
2021/04/29 05:50:44;;;;;;;23.42;17.05;;;;;;;8.71;69.67;100115.56;5283174;28;20020;-68
2021/04/29 05:53:16;;;;;;;20.77;16.30;;;;;;;8.67;70.37;100109.78;5281876;28;20505;-68
2021/04/29 05:55:47;;;;;;;20.33;15.90;;;;;;;8.71;69.45;100112.94;5267881;28;20508;-68
2021/04/29 05:58:19;;;;;;;23.33;17.25;;;;;;;8.64;71.05;100112.69;5283443;28;20029;-68
2021/04/29 06:00:50;;;;;;;22.58;17.17;;;;;;;8.64;70.99;100114.47;5281681;28;20048;-68
2021/04/29 06:03:22;;;;;;;21.83;17.27;;;;;;;8.65;71.04;100129.16;5284880;28;20035;-68
2021/04/29 06:05:54;;;;;;;21.42;16.80;;;;;;;8.68;70.98;100126.28;5284905;28;20056;-70
2021/04/29 06:08:25;;;;;;;22.48;17.05;;;;;;;8.67;71.02;100114.19;5283134;28;20454;-68
2021/04/29 06:10:56;;;;;;;22.60;17.70;;;;;;;8.72;71.38;100120.66;5283536;28;20024;-71
2021/04/29 06:13:28;;;;;;;22.27;17.42;;;;;;;8.77;70.86;100115.03;5281980;28;20067;-68
2021/04/29 06:15:59;;;;;;;20.63;17.95;;;;;;;8.80;71.07;100122.59;5284522;28;20366;-68
2021/04/29 06:18:30;;;;;;;25.15;18.40;;;;;;;8.85;70.71;100124.78;5245893;28;20033;-68
2021/04/29 06:21:01;;;;;;;22.52;17.95;;;;;;;8.88;70.79;100127.94;5281932;28;20036;-68
2021/04/29 06:23:33;;;;;;;24.17;19.58;;;;;;;8.84;70.65;100121.34;5284281;28;20031;-68
2021/04/29 06:26:04;;;;;;;22.63;19.00;;;;;;;8.91;70.83;100132.91;5282227;28;20611;-68
2021/04/29 06:28:36;;;;;;;25.15;19.83;;;;;;;8.90;70.84;100119.97;5278201;28;20020;-68
2021/04/29 06:31:08;;;;;;;23.33;17.75;;;;;;;9.00;70.92;100132.06;5283246;28;20056;-67
2021/04/29 06:33:39;;;;;;;23.05;18.70;;;;;;;9.02;70.97;100127.56;5280346;28;20042;-67
2021/04/29 06:36:10;;;;;;;25.13;19.17;;;;;;;9.07;70.40;100124.53;5284532;28;20035;-67
2021/04/29 06:38:42;;;;;;;21.17;18.75;;;;;;;9.08;70.42;100120.13;5285852;28;20034;-67
2021/04/29 06:41:13;;;;;;;22.63;20.08;;;;;;;9.10;70.45;100126.03;5285621;28;20477;-67
2021/04/29 06:43:44;;;;;;;25.80;20.27;;;;;;;9.10;70.23;100120.81;5281210;28;20031;-67
2021/04/29 06:46:16;;;;;;;23.75;19.92;;;;;;;9.11;69.90;100130.28;5287576;28;20085;-67
2021/04/29 06:48:47;;;;;;;29.48;21.25;;;;;;;9.19;70.35;100133.03;5284213;28;20028;-68
2021/04/29 06:51:18;;;;;;;24.60;19.17;;;;;;;9.23;70.00;100129.19;5285153;28;20112;-68
2021/04/29 06:53:49;;;;;;;24.63;20.52;;;;;;;9.33;70.16;100135.22;5281864;28;20130;-68
2021/04/29 06:56:21;;;;;;;23.27;19.45;;;;;;;9.37;69.78;100131.38;5268220;28;20052;-67
2021/04/29 06:58:52;;;;;;;28.88;20.17;;;;;;;9.41;69.56;100132.75;5285584;28;20622;-68
2021/04/29 07:01:24;;;;;;;23.50;18.42;;;;;;;9.35;69.70;100137.69;5284299;28;20040;-67
2021/04/29 07:03:57;;;;;;;24.88;19.13;;;;;;;9.31;69.99;100133.72;5282766;28;20024;-68
2021/04/29 07:06:29;;;;;;;;;;;;;;;9.55;69.15;100130.66;5286094;28;20421;-68
2021/04/29 07:09:00;;;;;;;25.08;18.58;;;;;;;9.52;69.33;100130.94;5284893;28;19951;-68
2021/04/29 07:11:32;;;;;;;26.15;20.08;;;;;;;9.47;69.13;100136.56;5283170;28;20024;-68
2021/04/29 07:14:03;;;;;;;25.70;20.08;;;;;;;9.48;69.12;100139.06;5287789;28;20129;-68
2021/04/29 07:16:35;;;;;;;23.42;19.63;;;;;;;9.60;69.07;100141.53;5287403;28;20081;-68
2021/04/29 07:19:06;;;;;;;22.27;19.45;;;;;;;9.73;69.00;100149.88;5286971;28;20028;-68
2021/04/29 07:21:37;;;;;;;24.27;18.95;;;;;;;9.82;67.94;100148.22;5287886;28;20113;-68
2021/04/29 07:24:08;;;;;;;24.55;19.85;;;;;;;9.78;67.89;100152.91;5288687;28;20033;-68
2021/04/29 07:26:40;;;;;;;24.15;19.80;;;;;;;9.63;68.15;100142.06;5287725;28;20032;-68
2021/04/29 07:29:11;;;;;;;22.80;19.00;;;;;;;9.79;68.33;100162.41;5284010;28;20025;-69
2021/04/29 07:31:42;;;;;;;23.98;19.95;;;;;;;9.69;68.32;100158.97;5281629;28;20442;-68
2021/04/29 07:34:14;;;;;;;23.52;19.75;;;;;;;9.70;68.35;100158.03;5269002;28;20032;-68
2021/04/29 07:36:45;;;;;;;24.75;20.85;;;;;;;9.67;68.14;100166.97;5267650;28;20396;-68
2021/04/29 07:39:20;;;;;;;26.13;20.52;;;;;;;9.68;68.12;100154.72;5287790;28;20024;-67
2021/04/29 07:41:51;;;;;;;24.45;21.40;;;;;;;9.63;68.59;100162.16;5272585;28;20036;-68
2021/04/29 07:44:22;;;;;;;23.90;21.13;;;;;;;9.68;68.17;100165.16;5283646;28;20079;-68
2021/04/29 07:46:54;;;;;;;28.85;22.45;;;;;;;9.59;68.94;100158.19;5278705;28;20076;-68
2021/04/29 07:49:26;;;;;;;25.85;21.15;;;;;;;9.62;68.62;100166.56;5283691;28;20090;-68
2021/04/29 07:51:57;;;;;;;27.42;22.40;;;;;;;9.54;68.99;100163.00;5285266;28;20032;-68
2021/04/29 07:54:31;;;;;;;25.80;21.10;;;;;;;9.54;69.12;100165.59;5284358;28;20061;-68
2021/04/29 07:57:03;;;;;;;28.27;22.73;;;;;;;9.50;69.08;100165.88;5287302;28;20035;-68
2021/04/29 07:59:34;;;;;;;26.90;22.48;;;;;;;9.45;69.45;100165.47;5266221;28;20036;-68
2021/04/29 08:02:06;;;;;;;27.52;23.63;;;;;;;9.40;69.89;100174.72;5276980;28;20020;-68
2021/04/29 08:04:37;;;;;;;26.40;23.58;;;;;;;9.39;70.26;100167.81;5280208;28;20031;-68
2021/04/29 08:07:09;;;;;;;31.17;25.45;;;;;;;9.36;70.36;100173.34;5284266;28;20034;-68
2021/04/29 08:09:40;;;;;;;35.17;26.15;;;;;;;9.38;70.75;100174.84;5283081;28;20020;-68
2021/04/29 08:12:11;;;;;;;29.38;24.85;;;;;;;9.37;71.60;100175.00;5284066;28;20028;-68
2021/04/29 08:14:42;;;;;;;40.97;28.40;;;;;;;9.31;73.35;100176.34;5281020;28;20040;-68
2021/04/29 08:17:14;;;;;;;36.28;27.45;;;;;;;9.23;73.69;100171.00;5283854;28;20067;-68
2021/04/29 08:19:45;;;;;;;32.42;28.27;;;;;;;9.22;74.39;100192.88;5281312;28;20043;-68
2021/04/29 08:22:16;;;;;;;35.20;28.95;;;;;;;9.21;74.80;100199.06;5282046;28;20032;-68
2021/04/29 08:24:48;;;;;;;32.78;27.95;;;;;;;9.19;75.07;100190.53;5283707;28;20031;-68
2021/04/29 08:27:19;;;;;;;34.55;29.15;;;;;;;9.12;75.24;100192.03;5287890;28;20053;-68
2021/04/29 08:29:52;;;;;;;36.08;28.60;;;;;;;9.17;75.26;100200.31;5283864;28;20112;-68
2021/04/29 08:32:23;;;;;;;31.77;27.90;;;;;;;9.16;75.25;100190.81;5283325;28;20429;-68
2021/04/29 08:34:55;;;;;;;37.47;27.75;;;;;;;9.07;75.64;100200.28;5283635;28;20123;-68
2021/04/29 08:37:27;;;;;;;34.72;28.08;;;;;;;9.10;76.00;100210.47;5286803;28;20027;-67
2021/04/29 08:39:58;;;;;;;35.03;28.75;;;;;;;9.02;76.48;100198.09;5282168;28;20447;-67
2021/04/29 08:42:30;;;;;;;32.63;28.45;;;;;;;9.07;77.46;100218.59;5283888;28;20028;-67
2021/04/29 08:45:04;;;;;;;37.15;29.13;;;;;;;9.02;78.63;100208.53;5279875;28;20647;-67
2021/04/29 08:47:35;;;;;;;30.42;27.13;;;;;;;9.17;77.88;100213.38;5279728;28;20032;-67
2021/04/29 08:50:08;;;;;;;34.22;29.33;;;;;;;9.15;78.78;100208.28;5277686;28;20018;-67
2021/04/29 08:52:40;;;;;;;38.42;30.38;;;;;;;9.12;79.21;100207.72;5281966;28;20033;-67
2021/04/29 08:55:37;;;;;;;34.22;29.73;;;;;;;9.23;78.20;100215.44;5287020;28;20400;-67
2021/04/29 08:58:10;;;;;;;36.72;30.50;;;;;;;9.13;79.78;100219.81;5281264;28;20041;-67
2021/04/29 09:00:41;;;;;;;38.43;31.17;;;;;;;9.13;80.37;100220.66;5282017;28;20040;-67
2021/04/29 09:03:12;;;;;;;35.17;29.98;;;;;;;9.07;80.05;100225.59;5286381;28;20297;-67
2021/04/29 09:05:47;;;;;;;37.88;29.85;;;;;;;9.07;79.60;100233.44;5284774;28;20500;-68
2021/04/29 09:08:18;;;;;;;36.28;30.58;;;;;;;8.96;80.20;100224.75;5284141;28;20035;-68
2021/04/29 09:10:49;;;;;;;37.42;28.85;;;;;;;8.97;80.23;100233.41;5285542;28;20028;-68
2021/04/29 09:13:22;;;;;;;30.85;27.10;;;;;;;8.95;80.49;100232.72;5284088;28;20019;-68
2021/04/29 09:15:54;;;;;;;;;;;;;;;9.20;78.20;100236.59;5284314;28;20039;-68
2021/04/29 09:18:31;;;;;;;31.00;24.53;;;;;;;9.07;79.99;100242.09;5283698;28;19919;-68
2021/04/29 09:21:08;;;;;;;26.08;23.27;;;;;;;9.00;79.84;100235.75;5281757;28;20035;-68
2021/04/29 09:23:44;;;;;;;29.67;23.27;;;;;;;8.94;80.63;100246.72;5281616;28;20031;-68
2021/04/29 09:26:19;;;;;;;24.17;20.80;;;;;;;8.94;80.34;100254.56;5282401;28;20031;-68
2021/04/29 09:28:52;;;;;;;30.20;23.63;;;;;;;8.86;81.53;100252.63;5285063;28;20036;-66
2021/04/29 09:31:27;;;;;;;25.00;21.27;;;;;;;8.84;80.82;100251.13;5285799;28;20067;-67
2021/04/29 09:34:01;;;;;;;25.15;21.50;;;;;;;8.82;81.43;100256.47;5282612;28;20025;-67
2021/04/29 09:36:40;;;;;;;;;;;;;;;9.02;79.80;100254.75;5264079;28;20043;-67
2021/04/29 09:39:16;;;;;;;24.10;20.52;;;;;;;8.80;81.63;100263.63;5280758;28;20323;-67
2021/04/29 09:41:50;;;;;;;23.33;20.75;;;;;;;8.78;82.08;100263.75;5282813;28;20127;-68
2021/04/29 09:44:24;;;;;;;22.92;20.52;;;;;;;8.79;81.82;100261.97;5288084;28;20024;-68
2021/04/29 09:47:02;;;;;;;23.02;20.65;;;;;;;8.68;81.96;100267.31;5263299;28;20123;-68
2021/04/29 09:49:38;;;;;;;22.00;19.48;;;;;;;8.64;81.92;100276.38;5282886;28;20028;-68
2021/04/29 09:52:22;;;;;;;22.30;19.13;;;;;;;8.78;80.98;100281.19;5265638;28;20046;-68
2021/04/29 09:54:54;;;;;;;25.35;20.60;;;;;;;8.61;81.94;100292.28;5284491;28;20024;-67
2021/04/29 09:57:27;;;;;;;21.50;19.27;;;;;;;8.50;80.35;100295.81;5280219;28;20028;-67
2021/04/29 10:00:00;;;;;;;21.30;18.88;;;;;;;8.30;79.60;100294.84;5256230;28;20305;-68
2021/04/29 10:02:32;;;;;;;21.33;19.00;;;;;;;8.19;79.71;100300.97;5263322;28;20054;-68
2021/04/29 10:05:04;;;;;;;22.63;19.65;;;;;;;8.25;81.07;100323.09;5261744;28;20037;-68
2021/04/29 10:07:35;;;;;;;23.33;19.75;;;;;;;8.15;80.87;100322.22;5265899;28;20406;-68
2021/04/29 10:10:07;;;;;;;28.83;18.48;;;;;;;8.13;79.00;100329.34;5265413;28;20031;-68
2021/04/29 10:12:40;;;;;;;19.92;17.75;;;;;;;8.12;79.76;100333.75;5265604;28;20087;-68
2021/04/29 10:15:11;;;;;;;23.58;18.35;;;;;;;8.20;80.05;100343.53;5266779;28;20102;-68
2021/04/29 10:17:42;;;;;;;21.55;17.95;;;;;;;8.07;79.79;100340.28;5259758;28;20044;-68
2021/04/29 10:20:14;;;;;;;22.63;17.75;;;;;;;8.14;79.33;100352.69;5264331;28;20046;-75
2021/04/29 10:22:47;;;;;;;20.60;17.92;;;;;;;8.03;80.37;100352.75;5265607;28;20024;-68
2021/04/29 10:25:34;;;;;;;22.35;18.23;;;;;;;8.09;80.50;100354.03;5263879;28;20095;-68
2021/04/29 10:28:05;;;;;;;18.60;15.85;;;;;;;7.93;79.19;100349.25;5262821;28;20142;-68
2021/04/29 10:30:38;;;;;;;21.73;16.67;;;;;;;7.89;80.04;100353.06;5253703;28;20502;-68
2021/04/29 10:33:18;;;;;;;18.77;16.77;;;;;;;7.93;79.51;100365.72;5253617;28;20098;-68
2021/04/29 10:35:58;;;;;;;19.08;16.90;;;;;;;7.84;78.29;100369.09;5258117;28;20809;-68
2021/04/29 10:38:33;;;;;;;19.17;15.77;;;;;;;7.65;78.30;100361.91;5261812;28;20563;-68
2021/04/29 10:41:17;;;;;;;22.02;16.85;;;;;;;7.78;78.36;100377.41;5258837;28;20035;-68
2021/04/29 10:43:51;;;;;;;20.13;15.98;;;;;;;7.67;78.77;100385.25;5253925;28;20379;-68
2021/04/29 10:46:31;;;;;;;18.05;15.82;;;;;;;7.77;79.62;100386.19;5266005;28;20029;-67
2021/04/29 10:49:03;;;;;;;18.08;14.88;;;;;;;7.75;77.86;100399.31;5264168;28;20558;-67
2021/04/29 10:51:37;;;;;;;18.33;15.20;;;;;;;7.69;78.08;100391.16;5265294;28;20032;-67
2021/04/29 10:54:08;;;;;;;18.70;15.77;;;;;;;7.66;77.95;100394.03;5243272;28;20035;-67
2021/04/29 10:56:41;;;;;;;20.10;15.43;;;;;;;7.66;78.36;100409.66;5269135;28;20028;-67
2021/04/29 10:59:14;;;;;;;17.83;15.80;;;;;;;7.62;78.49;100410.88;5283782;22;20414;-67
2021/04/29 11:01:45;;;;;;;16.60;14.32;;;;;;;7.69;77.99;100417.22;5298366;28;21125;-67
2021/04/29 11:04:19;;;;;;;16.00;14.35;;;;;;;7.65;78.16;100421.88;5301727;28;20031;-67
2021/04/29 11:06:51;;;;;;;18.35;13.93;;;;;;;7.62;79.01;100419.50;5309061;28;20024;-67
2021/04/29 11:09:26;;;;;;;16.15;14.27;;;;;;;7.67;79.26;100427.78;5308710;28;20544;-67
2021/04/29 11:12:02;;;;;;;17.08;13.65;;;;;;;7.75;78.75;100437.63;5308598;28;20042;-67
2021/04/29 11:14:46;;;;;;;20.15;15.10;;;;;;;7.69;80.37;100445.91;5312509;28;20023;-66
2021/04/29 11:17:20;;;;;;;18.17;14.77;;;;;;;7.69;79.72;100444.16;5311211;28;20583;-66
2021/04/29 11:19:57;;;;;;;17.88;13.90;;;;;;;7.62;80.27;100444.75;5308945;28;20372;-66
2021/04/29 11:22:32;;;;;;;18.88;15.65;;;;;;;7.54;81.48;100448.78;5308780;28;20081;-66
2021/04/29 11:25:12;;;;;;;17.48;14.55;;;;;;;7.59;81.31;100460.63;5308466;28;20544;-66
2021/04/29 11:27:43;;;;;;;18.65;15.07;;;;;;;7.50;80.72;100456.94;5311216;28;20035;-66
2021/04/29 11:30:16;;;;;;;19.70;15.27;;;;;;;7.44;81.64;100476.50;5303523;28;20036;-66
2021/04/29 11:33:04;;;;;;;17.75;14.55;;;;;;;7.50;80.08;100476.06;5307097;28;20040;-67
2021/04/29 11:35:38;;;;;;;18.40;14.68;;;;;;;7.38;79.85;100484.78;5306835;28;20228;-66
2021/04/29 11:38:10;;;;;;;19.33;14.05;;;;;;;7.34;80.39;100488.59;5305131;28;20824;-67
2021/04/29 11:40:42;;;;;;;14.55;12.73;;;;;;;7.23;79.73;100489.41;5308522;28;20032;-66
2021/04/29 11:43:13;;;;;;;19.00;13.77;;;;;;;7.23;80.47;100505.03;5304434;28;20051;-66